Time;durP1;ratioP1;P1;durP2;ratioP2;P2;SDS_P1;SDS_P2;PMS_P1;PMS_P2;Temp;Humidity;BMP_temperature;BMP_pressure;BME280_temperature;BME280_humidity;BME280_pressure;Samples;Min_cycle;Max_cycle;Signal;HPM_P1;HPM_P2
2021/11/11 00:00:29;;;;;;;77.55;29.67;;;;;;;-4.13;100.00;103237.72;1671176;85;21064;-87
2021/11/11 00:02:57;;;;;;;77.27;28.38;;;;;;;-4.17;100.00;103234.92;1670430;85;22010;-87
2021/11/11 00:05:24;;;;;;;80.85;30.37;;;;;;;-4.22;100.00;103231.25;1670943;85;21016;-87
2021/11/11 00:07:51;;;;;;;64.92;26.27;;;;;;;-4.24;100.00;103228.34;1671067;85;21072;-87
2021/11/11 00:10:20;;;;;;;76.25;28.83;;;;;;;-4.25;100.00;103226.19;1671059;85;21517;-87
2021/11/11 00:12:48;;;;;;;74.62;26.95;;;;;;;-4.22;100.00;103223.36;1671124;85;21064;-87
2021/11/11 00:15:15;;;;;;;64.17;26.90;;;;;;;-4.22;100.00;103219.41;1670882;85;21816;-88
2021/11/11 00:17:42;;;;;;;66.40;26.33;;;;;;;-4.26;100.00;103216.61;1671041;85;21132;-88
2021/11/11 00:20:12;;;;;;;70.42;26.68;;;;;;;-4.24;100.00;103219.97;1671273;85;21178;-87
2021/11/11 00:22:41;;;;;;;66.07;25.60;;;;;;;-4.28;100.00;103219.80;1671296;85;21041;-88
2021/11/11 00:25:08;;;;;;;70.50;27.17;;;;;;;-4.22;100.00;103227.30;1674971;85;21028;-88
2021/11/11 00:27:34;;;;;;;81.53;30.60;;;;;;;-4.21;100.00;103225.52;1671520;85;21205;-87
2021/11/11 00:30:00;;;;;;;80.00;32.03;;;;;;;-4.20;100.00;103223.27;1671189;85;20945;-88
2021/11/11 00:32:27;;;;;;;73.65;28.75;;;;;;;-4.15;100.00;103219.41;1671155;85;21111;-87
2021/11/11 00:34:53;;;;;;;84.25;32.88;;;;;;;-4.07;100.00;103216.74;1671596;85;21060;-88
2021/11/11 00:37:22;;;;;;;107.72;37.50;;;;;;;-4.03;100.00;103214.27;1671570;85;21012;-88
2021/11/11 00:39:50;;;;;;;102.72;37.98;;;;;;;-3.99;100.00;103215.30;1621318;88;21297;-87
2021/11/11 00:42:18;;;;;;;100.00;36.33;;;;;;;-3.92;100.00;103210.48;1621206;87;20966;-87
2021/11/11 00:44:46;;;;;;;107.70;36.28;;;;;;;-3.94;100.00;103204.45;1620969;87;21057;-88
2021/11/11 00:47:13;;;;;;;139.07;48.48;;;;;;;-3.89;100.00;103194.47;1621413;88;21042;-88
2021/11/11 00:49:40;;;;;;;156.12;52.17;;;;;;;-3.89;100.00;103195.79;1621425;88;21034;-87
2021/11/11 00:52:07;;;;;;;126.75;42.90;;;;;;;-3.86;100.00;103202.17;1599982;88;21135;-87
2021/11/11 00:54:35;;;;;;;109.20;38.40;;;;;;;-3.88;100.00;103189.59;1621054;87;21029;-87
2021/11/11 00:57:01;;;;;;;103.32;38.53;;;;;;;-3.95;100.00;103183.86;1621298;88;21104;-88
2021/11/11 00:59:28;;;;;;;110.12;35.48;;;;;;;-4.00;100.00;103184.66;1620578;88;21092;-87
2021/11/11 01:01:54;;;;;;;102.40;35.58;;;;;;;-4.00;100.00;103181.16;1621507;88;21061;-87
2021/11/11 01:04:20;;;;;;;105.85;38.42;;;;;;;-4.04;100.00;103173.94;1621298;88;21956;-87
2021/11/11 01:06:46;;;;;;;112.97;39.45;;;;;;;-4.06;100.00;103176.29;1621468;87;21035;-87
2021/11/11 01:09:12;;;;;;;126.70;43.13;;;;;;;-4.12;100.00;103174.89;1620820;87;21112;-87
2021/11/11 01:11:38;;;;;;;122.28;42.23;;;;;;;-4.13;100.00;103167.95;1621017;88;21002;-86
2021/11/11 01:14:04;;;;;;;128.35;45.40;;;;;;;-4.09;100.00;103165.48;1620760;87;21057;-87
2021/11/11 01:16:30;;;;;;;136.20;46.55;;;;;;;-4.12;100.00;103163.05;1621345;88;21110;-87
2021/11/11 01:18:56;;;;;;;141.07;48.08;;;;;;;-4.11;100.00;103159.49;1621346;87;21122;-87
2021/11/11 01:21:22;;;;;;;136.65;47.73;;;;;;;-4.07;100.00;103161.45;1621281;88;20996;-86
2021/11/11 01:23:48;;;;;;;132.00;45.35;;;;;;;-4.06;100.00;103157.38;1621372;88;20901;-86
2021/11/11 01:26:14;;;;;;;141.25;45.88;;;;;;;-4.10;100.00;103155.91;1621200;87;20895;-86
2021/11/11 01:28:40;;;;;;;129.18;41.48;;;;;;;-4.15;100.00;103150.95;1620840;88;21080;-87
2021/11/11 01:31:06;;;;;;;122.47;43.52;;;;;;;-4.13;100.00;103162.21;1604094;87;20978;-86
2021/11/11 01:33:32;;;;;;;120.10;43.52;;;;;;;-4.15;100.00;103165.88;1599322;88;21027;-86
2021/11/11 01:36:01;;;;;;;117.67;41.02;;;;;;;-4.15;100.00;103175.97;1610332;87;21014;-86
2021/11/11 01:38:26;;;;;;;115.25;43.10;;;;;;;-4.23;100.00;103173.45;1647937;87;21014;-86
2021/11/11 01:40:53;;;;;;;117.37;42.13;;;;;;;-4.22;100.00;103155.39;1647780;86;21143;-86
2021/11/11 01:43:19;;;;;;;113.42;42.27;;;;;;;-4.28;100.00;103150.53;1647942;86;21613;-86
2021/11/11 01:45:45;;;;;;;124.33;42.43;;;;;;;-4.30;100.00;103157.19;1648002;87;21015;-87
2021/11/11 01:48:17;;;;;;;122.55;43.00;;;;;;;-4.35;100.00;103148.29;1647959;87;20974;-86
2021/11/11 01:50:46;;;;;;;116.05;41.50;;;;;;;-4.35;100.00;103155.34;1648088;87;21066;-86
2021/11/11 01:53:14;;;;;;;111.97;40.03;;;;;;;-4.36;100.00;103151.00;1647384;87;21107;-86
2021/11/11 01:55:43;;;;;;;110.95;41.28;;;;;;;-4.37;100.00;103158.06;1647464;87;21073;-86
2021/11/11 01:58:10;;;;;;;115.25;40.12;;;;;;;-4.38;100.00;103157.70;1647766;87;21038;-86
2021/11/11 02:00:50;;;;;;;121.72;41.15;;;;;;;-4.46;100.00;103156.02;1647336;87;21006;-86
2021/11/11 02:03:17;;;;;;;117.95;41.45;;;;;;;-4.46;100.00;103155.19;1646227;87;21015;-85
2021/11/11 02:05:45;;;;;;;120.87;40.83;;;;;;;-4.44;100.00;103163.36;1647352;87;21183;-86
2021/11/11 02:08:12;;;;;;;125.97;42.83;;;;;;;-4.51;100.00;103158.57;1647154;85;21188;-86
2021/11/11 02:10:39;;;;;;;106.55;41.15;;;;;;;-4.51;100.00;103158.57;1647539;87;21092;-86
2021/11/11 02:13:07;;;;;;;111.32;40.67;;;;;;;-4.48;100.00;103151.31;1647733;87;21101;-86
2021/11/11 02:15:34;;;;;;;109.70;39.80;;;;;;;-4.46;100.00;103145.97;1647814;87;21121;-86
2021/11/11 02:18:01;;;;;;;104.58;38.50;;;;;;;-4.49;100.00;103147.02;1647891;87;21143;-86
2021/11/11 02:20:31;;;;;;;109.60;38.45;;;;;;;-4.48;100.00;103134.69;1647524;87;21320;-86
2021/11/11 02:23:01;;;;;;;109.80;38.28;;;;;;;-4.50;100.00;103142.70;1647837;87;21077;-86
2021/11/11 02:25:28;;;;;;;106.52;38.78;;;;;;;-4.52;100.00;103143.26;1647665;87;21013;-86
2021/11/11 02:27:59;;;;;;;101.47;37.28;;;;;;;-4.55;100.00;103135.56;1648116;87;21514;-86
2021/11/11 02:30:28;;;;;;;105.05;36.77;;;;;;;-4.54;100.00;103149.55;1655550;85;21235;-86
2021/11/11 02:32:55;;;;;;;109.03;38.35;;;;;;;-4.55;100.00;103146.09;1671146;85;21001;-86
2021/11/11 02:35:22;;;;;;;102.72;37.10;;;;;;;-4.62;100.00;103132.93;1671265;85;21017;-86
2021/11/11 02:37:49;;;;;;;98.85;36.60;;;;;;;-4.69;100.00;103125.06;1671439;85;21075;-86
2021/11/11 02:40:25;;;;;;;106.05;36.35;;;;;;;-4.72;100.00;103124.78;1671468;85;21008;-86
2021/11/11 02:42:52;;;;;;;99.60;36.15;;;;;;;-4.70;100.00;103132.59;1671313;85;21147;-86
2021/11/11 02:45:23;;;;;;;96.08;34.73;;;;;;;-4.73;100.00;103121.79;1671095;85;21048;-86
2021/11/11 02:47:50;;;;;;;94.07;35.38;;;;;;;-4.70;100.00;103122.07;1540063;93;21515;-85
2021/11/11 02:50:17;;;;;;;106.92;37.28;;;;;;;-4.67;100.00;103127.98;1539465;93;21106;-86
2021/11/11 02:52:46;;;;;;;119.72;43.13;;;;;;;-4.63;100.00;103133.41;1539870;93;21563;-86
2021/11/11 02:55:13;;;;;;;104.75;36.93;;;;;;;-4.57;100.00;103136.13;1539924;93;21067;-86
2021/11/11 02:57:42;;;;;;;128.40;41.40;;;;;;;-4.55;100.00;103146.56;1539944;92;21054;-85
2021/11/11 03:00:14;;;;;;;123.78;40.20;;;;;;;-4.58;100.00;103144.49;1539675;92;21948;-86
2021/11/11 03:02:44;;;;;;;121.22;40.20;;;;;;;-4.52;100.00;103143.73;1540412;92;21169;-85
2021/11/11 03:05:15;;;;;;;131.75;42.23;;;;;;;-4.54;100.00;103128.51;1540027;93;21749;-85
2021/11/11 03:07:42;;;;;;;139.60;45.80;;;;;;;-4.57;100.00;103130.38;1539967;93;21242;-86
2021/11/11 03:10:11;;;;;;;131.55;41.83;;;;;;;-4.55;100.00;103131.61;1540145;92;21652;-86
2021/11/11 03:12:38;;;;;;;118.77;38.30;;;;;;;-4.55;100.00;103134.25;1540005;93;21078;-86
2021/11/11 03:15:05;;;;;;;117.65;38.67;;;;;;;-4.60;100.00;103133.21;1539358;93;21167;-86
2021/11/11 03:17:31;;;;;;;116.50;38.20;;;;;;;-4.59;100.00;103134.92;1540024;92;21590;-86
2021/11/11 03:19:57;;;;;;;105.78;33.67;;;;;;;-4.60;100.00;103135.84;1540130;93;21196;-86
2021/11/11 03:22:24;;;;;;;125.50;39.78;;;;;;;-4.59;100.00;103130.10;1539466;93;22507;-86
2021/11/11 03:24:52;;;;;;;108.17;37.08;;;;;;;-4.63;100.00;103125.52;1539511;93;21117;-86
2021/11/11 03:27:20;;;;;;;139.12;41.70;;;;;;;-4.62;100.00;103132.93;1539825;93;21094;-86
2021/11/11 03:29:49;;;;;;;115.72;34.53;;;;;;;-4.65;100.00;103122.13;1539174;93;37613;-85
2021/11/11 03:32:18;;;;;;;92.17;32.38;;;;;;;-4.60;100.00;103120.05;1544140;92;21530;-87
2021/11/11 03:34:44;;;;;;;92.27;31.80;;;;;;;-4.55;100.00;103121.09;1543974;92;21080;-86
2021/11/11 03:37:12;;;;;;;72.55;26.02;;;;;;;-4.54;100.00;103110.93;1544373;92;21664;-86
2021/11/11 03:39:39;;;;;;;65.83;23.42;;;;;;;-4.54;100.00;103112.24;1544101;92;21680;-85
2021/11/11 03:42:08;;;;;;;74.75;23.02;;;;;;;-4.53;100.00;103108.66;1513299;92;21253;-85
2021/11/11 03:44:34;;;;;;;65.52;24.05;;;;;;;-4.52;100.00;103105.11;1605967;85;21182;-85
2021/11/11 03:47:02;;;;;;;60.55;22.82;;;;;;;-4.53;100.00;103113.92;1685192;84;21595;-85
2021/11/11 03:49:32;;;;;;;61.68;22.73;;;;;;;-4.55;100.00;103114.99;1685376;85;21062;-86
2021/11/11 03:51:58;;;;;;;66.90;22.58;;;;;;;-4.56;100.00;103116.75;1685216;84;21016;-86
2021/11/11 03:54:26;;;;;;;57.00;19.77;;;;;;;-4.54;100.00;103112.24;1685088;84;21619;-86
2021/11/11 03:56:55;;;;;;;65.78;19.75;;;;;;;-4.54;100.00;103108.78;1684669;85;21000;-85
2021/11/11 03:59:20;;;;;;;55.88;21.27;;;;;;;-4.52;100.00;103108.22;1684643;84;21017;-86
2021/11/11 04:01:47;;;;;;;52.93;19.70;;;;;;;-4.52;100.00;103107.73;1685069;84;21009;-86
2021/11/11 04:04:12;;;;;;;51.15;20.25;;;;;;;-4.52;100.00;103110.84;1685237;84;20964;-86
2021/11/11 04:06:39;;;;;;;54.77;20.05;;;;;;;-4.53;100.00;103103.40;1685215;84;20893;-86
2021/11/11 04:09:06;;;;;;;50.00;18.87;;;;;;;-4.55;100.00;103100.05;1685179;84;21129;-86
2021/11/11 04:11:34;;;;;;;52.03;19.02;;;;;;;-4.61;100.00;103102.59;1685136;85;21083;-85
2021/11/11 04:14:00;;;;;;;53.25;19.20;;;;;;;-4.66;100.00;103093.30;1685448;84;20968;-85
2021/11/11 04:16:26;;;;;;;57.10;20.50;;;;;;;-4.67;100.00;103097.73;1685390;84;21071;-85
2021/11/11 04:18:53;;;;;;;60.03;20.32;;;;;;;-4.66;100.00;103093.30;1685323;84;21706;-86
2021/11/11 04:21:20;;;;;;;54.77;20.12;;;;;;;-4.71;100.00;103090.11;1685123;85;21980;-86
2021/11/11 04:23:49;;;;;;;56.48;19.87;;;;;;;-4.71;100.00;103086.17;1685357;85;21503;-85
2021/11/11 04:26:21;;;;;;;51.02;19.77;;;;;;;-4.70;100.00;103094.45;1684934;84;21127;-85
2021/11/11 04:28:55;;;;;;;52.10;20.17;;;;;;;-4.68;100.00;103095.18;1677323;85;21051;-85
2021/11/11 04:31:29;;;;;;;56.55;20.30;;;;;;;-4.66;100.00;103099.41;1677484;85;21114;-86
2021/11/11 04:34:01;;;;;;;54.45;19.70;;;;;;;-4.64;100.00;103092.74;1675761;85;21652;-85
2021/11/11 04:39:34;;;;;;;62.93;22.58;;;;;;;-4.64;100.00;103099.33;1675831;85;21076;-86
2021/11/11 04:44:36;;;;;;;57.33;20.20;;;;;;;-4.64;100.00;103102.79;1675905;85;21045;-86
2021/11/11 05:05:46;;;;;;;73.72;26.10;;;;;;;-4.48;100.00;103115.80;1675972;85;21508;-85
2021/11/11 05:08:13;;;;;;;74.12;27.98;;;;;;;-4.45;100.00;103123.49;1676162;85;21064;-85
2021/11/11 05:10:38;;;;;;;69.50;25.32;;;;;;;-4.41;100.00;103117.11;1676000;85;21036;-86
2021/11/11 05:13:05;;;;;;;78.95;29.48;;;;;;;-4.31;100.00;103124.41;1676162;85;21080;-86
2021/11/11 05:15:32;;;;;;;68.62;25.95;;;;;;;-4.21;100.00;103131.58;1676040;85;21012;-85
2021/11/11 05:17:58;;;;;;;64.53;24.45;;;;;;;-4.08;100.00;103129.02;1676299;85;21056;-85
2021/11/11 05:20:24;;;;;;;64.10;24.05;;;;;;;-3.94;100.00;103128.95;1676138;85;20968;-85
2021/11/11 05:22:51;;;;;;;75.05;24.32;;;;;;;-3.76;100.00;103138.73;1676142;85;21083;-87
2021/11/11 05:25:18;;;;;;;66.37;23.52;;;;;;;-3.65;100.00;103119.55;1675574;85;21092;-88
2021/11/11 05:27:45;;;;;;;74.65;24.52;;;;;;;-3.57;100.00;103120.36;1676010;85;21076;-88
2021/11/11 05:30:13;;;;;;;72.53;21.68;;;;;;;-3.37;100.00;103128.22;1675813;85;21071;-88
2021/11/11 05:32:40;;;;;;;66.97;22.58;;;;;;;-3.21;100.00;103131.02;1672435;85;21569;-88
2021/11/11 05:35:09;;;;;;;57.55;19.67;;;;;;;-3.04;100.00;103120.59;1671264;85;20997;-88
2021/11/11 05:37:36;;;;;;;56.48;19.90;;;;;;;-2.73;100.00;103122.39;1671175;85;21320;-88
2021/11/11 05:40:04;;;;;;;67.58;21.97;;;;;;;-2.14;100.00;103124.28;1674574;85;21103;-86
2021/11/11 05:42:29;;;;;;;47.93;17.73;;;;;;;-1.44;100.00;103126.89;1671049;85;21533;-87
2021/11/11 05:44:55;;;;;;;61.63;18.98;;;;;;;-0.60;100.00;103111.45;1671184;85;20961;-87
2021/11/11 05:47:21;;;;;;;54.42;17.10;;;;;;;0.52;100.00;103097.34;1671154;85;20905;-87
2021/11/11 05:49:47;;;;;;;50.67;17.25;;;;;;;2.05;100.00;103102.30;1671555;85;21110;-87
2021/11/11 05:52:13;;;;;;;55.50;17.30;;;;;;;3.50;100.00;103095.61;1671338;85;20873;-86
2021/11/11 05:54:39;;;;;;;54.48;18.85;;;;;;;4.47;100.00;103091.20;1671332;85;21505;-86
2021/11/11 05:57:07;;;;;;;47.93;18.25;;;;;;;5.79;100.00;103096.02;1671160;85;21085;-87
2021/11/11 05:59:38;;;;;;;49.05;18.77;;;;;;;7.40;100.00;103090.95;1671283;85;21028;-86
2021/11/11 06:02:04;;;;;;;41.37;17.15;;;;;;;8.75;100.00;103090.33;1667711;85;21715;-87
2021/11/11 06:04:30;;;;;;;50.48;19.12;;;;;;;9.88;100.00;103091.11;1670682;85;21595;-87
2021/11/11 06:06:56;;;;;;;43.17;16.85;;;;;;;10.57;97.95;103096.32;1671273;85;20945;-87
2021/11/11 06:09:22;;;;;;;34.15;13.70;;;;;;;10.09;93.72;103086.20;1671267;85;21549;-87
2021/11/11 06:11:48;;;;;;;54.53;20.32;;;;;;;11.17;100.00;103081.24;1651890;85;21667;-87
2021/11/11 06:14:14;;;;;;;57.58;21.12;;;;;;;12.41;90.31;103079.93;1671297;85;21189;-87
2021/11/11 06:16:40;;;;;;;33.63;13.62;;;;;;;13.45;79.09;103073.53;1675273;85;21072;-87
2021/11/11 06:19:09;;;;;;;39.80;17.17;;;;;;;14.62;65.18;103081.95;1671464;85;21524;-87
2021/11/11 06:21:35;;;;;;;31.77;15.78;;;;;;;15.41;59.60;103073.32;1671136;85;21055;-87
2021/11/11 06:24:05;;;;;;;32.58;16.35;;;;;;;16.02;55.24;103068.60;1674965;85;21016;-88
2021/11/11 06:26:32;;;;;;;32.48;14.83;;;;;;;16.60;53.68;103064.75;1671103;85;21137;-87
2021/11/11 06:29:00;;;;;;;26.62;13.85;;;;;;;17.32;53.48;103064.28;1671410;85;20985;-88
2021/11/11 06:31:27;;;;;;;26.73;11.83;;;;;;;18.29;51.11;103067.27;1671100;85;21075;-89
2021/11/11 06:34:02;;;;;;;27.77;10.23;;;;;;;18.93;45.11;103073.05;1639706;85;21073;-88
2021/11/11 06:36:23;;;;;;;17.73;8.93;;;;;;;19.21;45.36;103068.45;1657649;84;21068;-90
2021/11/11 06:38:50;;;;;;;17.73;8.03;;;;;;;19.27;42.50;103070.98;1652206;84;21125;-89
2021/11/11 06:41:17;;;;;;;13.15;7.65;;;;;;;19.77;42.85;103077.77;1661662;84;21589;-90
2021/11/11 06:43:43;;;;;;;16.62;8.50;;;;;;;20.15;41.39;103076.67;1677927;84;21016;-90
2021/11/11 06:46:11;;;;;;;12.05;7.05;;;;;;;19.89;40.03;103072.93;1672441;84;21924;-92
2021/11/11 06:48:38;;;;;;;26.45;13.15;;;;;;;20.00;37.08;103070.55;1651654;84;22012;-92
2021/11/11 06:51:05;;;;;;;12.70;7.47;;;;;;;20.11;37.71;103075.53;1665984;84;22071;-92
2021/11/11 06:53:31;;;;;;;15.15;7.28;;;;;;;20.13;36.64;103074.73;1659205;84;21107;-92
2021/11/11 06:55:58;;;;;;;22.93;10.58;;;;;;;20.38;35.74;103063.95;1666093;84;21028;-92
2021/11/11 06:58:26;;;;;;;12.15;7.72;;;;;;;20.42;36.53;103065.05;1654810;84;20996;-93
2021/11/11 07:00:57;;;;;;;13.32;8.10;;;;;;;21.18;35.79;103062.88;1672446;84;21028;-93
2021/11/11 07:03:23;;;;;;;12.63;7.53;;;;;;;21.39;33.99;103059.67;1643996;85;21239;-93
2021/11/11 07:05:49;;;;;;;16.27;8.53;;;;;;;21.55;32.97;103062.69;1670198;85;21826;-94
2021/11/11 07:08:19;;;;;;;11.38;6.83;;;;;;;21.35;32.70;103056.59;1670719;85;21067;-94
2021/11/11 07:10:49;;;;;;;9.40;6.47;;;;;;;21.69;32.37;103057.48;1615604;88;21090;-95
2021/11/11 07:13:17;;;;;;;12.15;7.65;;;;;;;21.89;31.96;103059.41;1615658;88;20987;-95
2021/11/11 07:15:45;;;;;;;12.53;7.15;;;;;;;21.87;31.37;103054.73;1615852;88;21180;-95
2021/11/11 07:18:13;;;;;;;14.13;7.20;;;;;;;22.02;31.84;103055.25;1615581;88;21051;-95
2021/11/11 07:20:44;;;;;;;16.15;8.23;;;;;;;22.31;31.60;103059.06;1615742;88;21127;-95
2021/11/11 07:23:14;;;;;;;11.85;6.70;;;;;;;22.34;30.98;103061.80;1615422;88;21035;-96
2021/11/11 07:25:41;;;;;;;9.90;6.58;;;;;;;22.74;30.53;103062.21;1615777;88;21039;-96
2021/11/11 07:28:07;;;;;;;10.05;6.50;;;;;;;22.46;29.17;103054.07;1616111;88;21238;-96
2021/11/11 07:30:34;;;;;;;10.23;5.80;;;;;;;21.84;28.89;103051.16;1615957;88;21479;-95
2021/11/11 07:33:00;;;;;;;10.35;6.67;;;;;;;21.71;28.76;103045.14;1619867;88;21079;-95
2021/11/11 07:35:26;;;;;;;8.83;6.20;;;;;;;21.52;29.23;103050.34;1647585;85;20952;-93
2021/11/11 07:37:53;;;;;;;10.28;6.35;;;;;;;21.60;29.23;103040.75;1636019;85;21002;-96
2021/11/11 07:40:23;;;;;;;13.98;5.90;;;;;;;21.89;30.45;103038.81;1676086;85;21140;-96
2021/11/11 07:42:50;;;;;;;9.88;5.78;;;;;;;22.10;28.46;103043.71;1679485;85;21160;-96
2021/11/11 07:45:23;;;;;;;14.98;6.70;;;;;;;22.50;28.81;103046.08;1680059;84;21046;-96
2021/11/11 07:47:45;;;;;;;9.60;5.62;;;;;;;22.93;27.72;103046.44;1676325;85;21815;-96
2021/11/11 07:50:12;;;;;;;9.58;5.87;;;;;;;22.77;27.22;103041.03;1679829;85;21038;-96
2021/11/11 07:52:38;;;;;;;10.50;5.78;;;;;;;22.58;26.86;103033.95;1680019;85;21602;-96
2021/11/11 07:55:06;;;;;;;9.90;5.92;;;;;;;22.83;27.86;103038.52;1679907;85;21177;-96
2021/11/11 07:57:33;;;;;;;13.15;6.75;;;;;;;23.18;27.36;103038.59;1679729;85;21090;-95
2021/11/11 08:00:00;;;;;;;14.55;5.50;;;;;;;23.33;26.82;103039.88;1679872;85;21094;-96
2021/11/11 08:02:28;;;;;;;8.90;5.30;;;;;;;24.06;26.58;103023.83;1679544;85;21107;-95
2021/11/11 08:04:54;;;;;;;12.47;5.90;;;;;;;24.28;26.09;103034.31;1679177;85;21105;-95
2021/11/11 08:07:20;;;;;;;10.08;6.12;;;;;;;23.88;25.22;103023.17;1676276;85;20935;-95
2021/11/11 08:09:49;;;;;;;14.38;6.47;;;;;;;23.77;24.99;103021.91;1675406;85;20985;-96
2021/11/11 08:12:17;;;;;;;14.83;7.45;;;;;;;24.01;24.82;103021.94;1676094;84;21563;-96
2021/11/11 08:14:44;;;;;;;14.18;7.50;;;;;;;23.05;24.75;103020.25;1651229;86;21083;-96
2021/11/11 08:17:11;;;;;;;15.10;7.33;;;;;;;21.24;25.82;103022.87;1650781;86;21232;-96
2021/11/11 08:19:39;;;;;;;18.48;7.28;;;;;;;19.05;26.97;103024.53;1629329;86;21608;-93
2021/11/11 08:22:05;;;;;;;19.67;8.00;;;;;;;17.03;28.76;103018.00;1650607;86;21754;-95
2021/11/11 08:24:31;;;;;;;20.08;8.40;;;;;;;15.33;30.44;103023.91;1651316;86;21079;-94
2021/11/11 08:26:57;;;;;;;18.48;7.60;;;;;;;13.64;32.15;103016.17;1647393;86;21029;-96
2021/11/11 08:29:23;;;;;;;19.12;7.37;;;;;;;12.24;33.81;103018.73;1629026;86;21153;-94
2021/11/11 08:31:49;;;;;;;15.72;6.85;;;;;;;11.27;36.18;103005.30;1651023;86;20928;-95
2021/11/11 08:34:15;;;;;;;21.42;7.08;;;;;;;10.59;37.38;103003.42;1650827;86;21123;-95
2021/11/11 08:36:41;;;;;;;20.97;6.53;;;;;;;9.58;39.07;102993.47;1645652;86;21114;-94
2021/11/11 08:39:07;;;;;;;15.58;6.50;;;;;;;9.58;39.07;102993.47;1644105;86;21698;-93
2021/11/11 08:41:33;;;;;;;18.75;6.42;;;;;;;8.98;40.29;102990.72;1667338;86;21083;-93
2021/11/11 08:44:01;;;;;;;17.50;6.78;;;;;;;8.42;41.20;103000.67;1666515;86;21753;-92
2021/11/11 08:46:27;;;;;;;17.77;7.25;;;;;;;7.96;42.21;102977.45;1666264;86;21579;-91
2021/11/11 08:48:54;;;;;;;16.07;6.10;;;;;;;7.60;43.64;102982.66;1666726;86;21111;-90
2021/11/11 08:51:20;;;;;;;14.65;6.33;;;;;;;7.32;44.44;102988.24;1666771;86;21555;-91
2021/11/11 08:53:47;;;;;;;18.60;6.95;;;;;;;7.16;45.50;102977.97;1629851;86;21178;-91
2021/11/11 08:56:13;;;;;;;19.92;7.53;;;;;;;6.97;46.25;102964.53;1646464;86;21015;-91
2021/11/11 08:58:39;;;;;;;19.00;7.22;;;;;;;6.74;47.28;102968.51;1646363;87;21757;-90
2021/11/11 09:01:07;;;;;;;19.55;8.03;;;;;;;6.55;47.70;102968.41;1646305;87;21590;-91
2021/11/11 09:03:35;;;;;;;25.32;8.15;;;;;;;6.27;49.09;102963.19;1646654;87;21710;-91
2021/11/11 09:06:02;;;;;;;23.38;8.33;;;;;;;6.21;50.31;102957.19;1646177;87;21059;-91
2021/11/11 09:08:29;;;;;;;21.82;8.30;;;;;;;5.96;50.78;102955.89;1646846;87;20968;-91
2021/11/11 09:10:57;;;;;;;23.02;7.97;;;;;;;5.92;52.61;102950.02;1646727;87;21099;-91
2021/11/11 09:13:24;;;;;;;24.30;8.18;;;;;;;6.01;54.61;102944.69;1646998;87;21868;-92
2021/11/11 09:15:51;;;;;;;28.02;9.30;;;;;;;5.99;54.51;102935.98;1645907;87;21119;-91
2021/11/11 09:18:17;;;;;;;22.62;7.85;;;;;;;5.90;54.59;102943.16;1636433;87;21098;-90
2021/11/11 09:20:43;;;;;;;22.52;7.90;;;;;;;5.91;56.60;102955.05;1629288;88;21009;-91
2021/11/11 09:23:11;;;;;;;20.68;7.75;;;;;;;5.80;56.42;102949.22;1619967;88;22038;-92
2021/11/11 09:25:37;;;;;;;23.60;8.25;;;;;;;5.69;57.23;102947.21;1639383;85;21083;-91
2021/11/11 09:28:04;;;;;;;29.50;9.68;;;;;;;5.64;58.96;102938.85;1641848;86;21600;-91
2021/11/11 09:30:37;;;;;;;31.12;10.25;;;;;;;5.69;60.10;102939.19;1642344;86;21129;-90
2021/11/11 09:33:05;;;;;;;41.23;14.70;;;;;;;5.71;59.93;102929.67;1656217;85;21063;-90
2021/11/11 09:35:32;;;;;;;48.30;15.53;;;;;;;5.71;59.21;102922.98;1675993;85;20957;-91
2021/11/11 09:38:00;;;;;;;42.67;14.28;;;;;;;5.60;58.19;102908.61;1675928;85;21009;-90
2021/11/11 09:40:28;;;;;;;42.67;14.70;;;;;;;5.55;61.16;102906.44;1675972;85;21598;-89
2021/11/11 09:42:55;;;;;;;37.78;14.18;;;;;;;5.57;60.25;102899.59;1667834;85;22033;-89
2021/11/11 09:45:25;;;;;;;38.63;14.43;;;;;;;5.56;60.16;102898.77;1656000;85;21032;-88
2021/11/11 09:47:53;;;;;;;48.60;16.42;;;;;;;5.57;60.27;102899.09;1674023;85;21166;-88
2021/11/11 09:50:23;;;;;;;47.03;14.93;;;;;;;5.53;59.89;102895.09;1676373;85;20993;-93
2021/11/11 09:52:51;;;;;;;40.12;12.95;;;;;;;5.47;61.32;102873.01;1676090;85;21033;-87
2021/11/11 10:00:52;;;;;;;36.53;12.50;;;;;;;5.60;59.87;102885.88;1628788;85;21050;-87
2021/11/11 10:03:19;;;;;;;37.23;12.85;;;;;;;5.57;60.26;102876.86;1669081;85;21085;-88
2021/11/11 10:05:46;;;;;;;31.82;11.25;;;;;;;5.49;60.23;102881.70;1658231;85;21081;-86
2021/11/11 10:08:35;;;;;;;39.67;12.18;;;;;;;5.49;61.97;102880.87;1647052;86;21052;-86
2021/11/11 10:11:04;;;;;;;37.85;13.78;;;;;;;5.49;61.61;102874.20;1647271;87;20991;-86
2021/11/11 10:13:31;;;;;;;33.92;12.30;;;;;;;5.45;61.29;102881.22;1654857;85;21582;-86
2021/11/11 10:16:04;;;;;;;30.90;9.88;;;;;;;5.53;62.38;102880.86;1675227;85;21009;-86
2021/11/11 10:18:52;;;;;;;30.92;9.90;;;;;;;5.57;59.43;102866.16;1578405;89;27465;-86
2021/11/11 10:21:46;;;;;;;33.18;11.30;;;;;;;5.50;57.75;102885.21;1520326;92;21975;-87
2021/11/11 10:24:46;;;;;;;35.95;12.35;;;;;;;5.45;58.70;102877.72;1515656;92;21559;-87
2021/11/11 10:30:25;;;;;;;42.60;12.65;;;;;;;5.42;60.96;102880.73;1516562;92;21085;-87
2021/11/11 10:32:55;;;;;;;35.90;11.57;;;;;;;5.47;61.53;102874.34;1516890;92;21161;-88
2021/11/11 10:35:31;;;;;;;35.83;12.03;;;;;;;5.55;63.71;102866.31;1523588;92;21943;-87
2021/11/11 10:38:08;;;;;;;33.30;11.18;;;;;;;5.55;63.51;102860.14;1523837;92;21096;-87
2021/11/11 10:40:40;;;;;;;27.77;9.48;;;;;;;5.52;64.22;102853.28;1523251;92;21131;-86
2021/11/11 10:43:10;;;;;;;25.20;8.70;;;;;;;5.55;65.02;102851.61;1521634;92;21143;-86
2021/11/11 10:45:41;;;;;;;26.35;8.28;;;;;;;5.59;64.71;102851.62;1523864;92;21127;-86
2021/11/11 10:48:15;;;;;;;22.07;7.12;;;;;;;5.59;64.26;102842.73;1523950;93;21457;-86
2021/11/11 10:50:46;;;;;;;24.87;7.60;;;;;;;5.59;63.95;102841.40;1523305;92;21089;-86
2021/11/11 10:53:16;;;;;;;19.05;6.65;;;;;;;5.54;63.75;102830.40;1523781;92;21128;-86
2021/11/11 10:55:49;;;;;;;18.57;6.55;;;;;;;5.48;63.14;102820.39;1549528;89;21039;-86
2021/11/11 10:58:23;;;;;;;20.25;7.25;;;;;;;5.49;63.77;102808.17;1569430;90;21063;-86
2021/11/11 11:01:09;;;;;;;14.73;5.67;;;;;;;5.51;65.42;102814.19;1542372;92;21837;-86
2021/11/11 11:03:42;;;;;;;15.20;5.25;;;;;;;5.51;64.89;102803.49;1552950;92;21213;-86
2021/11/11 11:06:11;;;;;;;;;;;;;;;5.52;63.46;102794.97;1555656;92;21127;-86
2021/11/11 11:08:49;;;;;;;16.10;5.30;;;;;;;5.51;62.21;102796.81;1552741;92;20614;-86
2021/11/11 11:11:32;;;;;;;18.52;6.08;;;;;;;5.48;63.27;102780.28;1553139;92;21483;-86
2021/11/11 11:14:02;;;;;;;13.20;5.07;;;;;;;5.47;62.65;102767.38;1553692;91;22315;-86
2021/11/11 11:16:33;;;;;;;20.95;5.25;;;;;;;5.54;63.32;102772.91;1546211;92;21227;-86
2021/11/11 11:19:13;;;;;;;14.63;5.05;;;;;;;5.55;61.54;102770.04;1538797;92;21064;-85
2021/11/11 11:21:46;;;;;;;13.60;5.33;;;;;;;5.53;59.11;102760.52;1518729;93;21169;-87
2021/11/11 11:24:26;;;;;;;13.25;4.67;;;;;;;5.44;58.70;102767.25;1526018;93;21057;-86
2021/11/11 11:26:57;;;;;;;12.15;5.05;;;;;;;5.38;58.80;102766.61;1483235;95;21819;-87
2021/11/11 11:32:05;;;;;;;14.03;5.60;;;;;;;5.47;60.79;102760.70;1446698;98;21600;-87
2021/11/11 11:34:36;;;;;;;16.32;4.92;;;;;;;5.55;61.81;102756.67;1419879;97;21144;-87
2021/11/11 11:37:13;;;;;;;12.58;4.80;;;;;;;5.54;59.95;102744.31;1421857;100;21463;-87
2021/11/11 11:39:43;;;;;;;16.15;5.42;;;;;;;5.50;57.58;102729.63;1421451;100;22189;-91
2021/11/11 11:42:15;;;;;;;19.20;5.75;;;;;;;5.43;57.35;102731.31;1422629;100;21187;-86
2021/11/11 11:44:44;;;;;;;13.25;4.97;;;;;;;5.48;58.78;102724.13;1405341;100;21107;-87
2021/11/11 11:47:38;;;;;;;15.43;5.33;;;;;;;5.55;60.64;102728.59;1413890;101;21129;-86
2021/11/11 11:50:13;;;;;;;17.80;5.20;;;;;;;5.58;59.51;102715.38;1411442;101;21136;-87